Time;durP1;ratioP1;P1;durP2;ratioP2;P2;SDS_P1;SDS_P2;PMS_P1;PMS_P2;Temp;Humidity;BMP_temperature;BMP_pressure;BME280_temperature;BME280_humidity;BME280_pressure;Samples;Min_cycle;Max_cycle;Signal;HPM_P1;HPM_P2
2023/12/14 00:01:00;;;;;;;5.43;4.28;;;;;;;-146.25;100.00;52694.66;2079752;28;35496;-78
2023/12/14 00:02:02;;;;;;;4.95;4.28;;;;;;;-146.25;100.00;52733.19;2080423;28;34664;-78
2023/12/14 00:03:03;;;;;;;4.75;4.22;;;;;;;-146.25;100.00;52708.84;2079758;28;37042;-77
2023/12/14 00:04:06;;;;;;;5.80;4.45;;;;;;;-146.25;100.00;52672.34;2079943;28;37954;-78
2023/12/14 00:05:10;;;;;;;6.07;4.25;;;;;;;-146.25;100.00;52727.09;2079962;28;31443;-76
2023/12/14 00:06:13;;;;;;;5.63;4.00;;;;;;;-146.25;100.00;52696.69;2079926;28;40005;-78
2023/12/14 00:07:17;;;;;;;6.03;3.60;;;;;;;-146.25;100.00;52660.19;2080309;28;20042;-75
2023/12/14 00:08:19;;;;;;;4.88;4.20;;;;;;;-146.25;100.00;52688.56;2080348;28;34824;-77
2023/12/14 00:09:21;;;;;;;5.05;4.30;;;;;;;-146.25;100.00;52706.81;2080551;28;20101;-78
2023/12/14 00:10:25;;;;;;;4.70;4.03;;;;;;;-146.25;100.00;52704.78;2080289;28;34434;-78
2023/12/14 00:11:27;;;;;;;5.97;4.03;;;;;;;-146.25;100.00;52712.91;2079766;28;35252;-75
2023/12/14 00:12:28;;;;;;;5.65;4.40;;;;;;;-146.25;100.00;52688.56;2080012;28;38576;-78
2023/12/14 00:13:30;;;;;;;4.70;4.15;;;;;;;-146.25;100.00;52721.00;2080039;28;33123;-78
2023/12/14 00:14:32;;;;;;;4.90;4.07;;;;;;;-146.25;100.00;52712.91;2080365;28;31915;-77
2023/12/14 00:15:34;;;;;;;5.80;4.32;;;;;;;-146.25;100.00;52704.78;2079756;28;38248;-77
2023/12/14 00:16:39;;;;;;;8.52;4.45;;;;;;;-146.25;100.00;52702.75;2080082;28;36226;-78
2023/12/14 00:17:41;;;;;;;5.03;4.05;;;;;;;-146.25;100.00;52712.91;2079971;28;37465;-78
2023/12/14 00:18:42;;;;;;;4.68;4.10;;;;;;;-146.25;100.00;52702.75;2079928;28;33997;-78
2023/12/14 00:19:47;;;;;;;6.13;4.65;;;;;;;-146.25;100.00;52708.84;2080535;28;20963;-77
2023/12/14 00:20:49;;;;;;;6.25;4.78;;;;;;;-146.25;100.00;52735.22;2080070;28;36477;-78
2023/12/14 00:21:51;;;;;;;6.03;4.50;;;;;;;-146.25;100.00;52712.91;2079734;28;34399;-77
2023/12/14 00:22:53;;;;;;;6.63;4.22;;;;;;;-146.25;100.00;52714.94;2080004;28;32955;-77
2023/12/14 00:23:55;;;;;;;5.90;4.20;;;;;;;-146.25;100.00;52682.47;2080013;28;35445;-76
2023/12/14 00:24:56;;;;;;;4.88;4.32;;;;;;;-146.25;100.00;52725.06;2079745;28;35789;-76
2023/12/14 00:25:58;;;;;;;4.53;3.88;;;;;;;-146.25;100.00;52702.75;2079796;28;35220;-77
2023/12/14 00:27:00;;;;;;;5.60;4.40;;;;;;;-146.25;100.00;52694.66;2080108;28;36833;-77
2023/12/14 00:28:02;;;;;;;6.15;4.18;;;;;;;-146.25;100.00;52694.66;2079579;28;38698;-75
2023/12/14 00:29:08;;;;;;;5.22;4.07;;;;;;;-146.25;100.00;52725.06;2079895;28;33437;-77
2023/12/14 00:30:13;;;;;;;7.20;4.20;;;;;;;-146.25;100.00;52727.09;2080382;28;20088;-76
2023/12/14 00:31:15;;;;;;;4.20;3.10;;;;;;;-146.25;100.00;52716.97;2079563;28;36016;-76
2023/12/14 00:32:16;;;;;;;5.43;3.75;;;;;;;-146.25;100.00;52737.22;2079997;28;35038;-77
2023/12/14 00:33:20;;;;;;;4.78;3.90;;;;;;;-146.25;100.00;52731.16;2079641;28;36644;-77
2023/12/14 00:34:22;;;;;;;5.25;4.05;;;;;;;-146.25;100.00;52712.91;2079357;28;35379;-75
2023/12/14 00:35:24;;;;;;;4.57;3.67;;;;;;;-146.25;100.00;52714.94;2079606;28;32943;-78
2023/12/14 00:36:28;;;;;;;6.15;3.60;;;;;;;-146.25;100.00;52672.34;2079009;28;37222;-77
2023/12/14 00:37:30;;;;;;;5.07;4.10;;;;;;;-146.25;100.00;52725.06;2079300;28;34766;-77
2023/12/14 00:38:32;;;;;;;5.85;4.03;;;;;;;-146.25;100.00;52694.66;2079657;28;33563;-75
2023/12/14 00:39:33;;;;;;;5.45;4.00;;;;;;;-146.25;100.00;52714.94;2079013;28;39263;-77
2023/12/14 00:40:37;;;;;;;6.00;3.88;;;;;;;-146.25;100.00;52696.69;2070995;28;35337;-76
2023/12/14 00:41:39;;;;;;;5.18;3.90;;;;;;;-146.25;100.00;52710.88;2070855;28;36103;-77
2023/12/14 00:42:41;;;;;;;6.60;4.10;;;;;;;-146.25;100.00;52676.41;2071158;28;33626;-78
2023/12/14 00:43:43;;;;;;;5.28;4.38;;;;;;;-146.25;100.00;52680.47;2080113;28;34403;-78
2023/12/14 00:44:47;;;;;;;6.15;4.45;;;;;;;-146.25;100.00;52694.66;2079380;28;35730;-78
2023/12/14 00:45:52;;;;;;;7.18;4.43;;;;;;;-146.25;100.00;52725.06;2080918;28;20756;-77
2023/12/14 00:46:55;;;;;;;7.60;4.53;;;;;;;-146.25;100.00;52690.59;2080354;28;20038;-76
2023/12/14 00:47:56;;;;;;;8.30;4.55;;;;;;;-146.25;100.00;52716.97;2080149;28;35535;-77
2023/12/14 00:48:58;;;;;;;6.00;3.78;;;;;;;-146.25;100.00;52718.97;2079325;28;37013;-77
2023/12/14 00:50:00;;;;;;;6.30;4.20;;;;;;;-146.25;100.00;52729.13;2080739;28;20894;-77
2023/12/14 00:51:02;;;;;;;5.32;3.92;;;;;;;-146.25;100.00;52690.59;2079479;28;35881;-76
2023/12/14 00:52:09;;;;;;;5.45;4.38;;;;;;;-146.25;100.00;52721.00;2080373;28;20041;-77
2023/12/14 00:53:11;;;;;;;8.40;4.30;;;;;;;-146.25;100.00;52704.78;2079750;28;37068;-77
2023/12/14 00:54:14;;;;;;;6.43;4.43;;;;;;;-146.25;100.00;52694.66;2079766;28;37458;-78
2023/12/14 00:55:19;;;;;;;6.15;4.30;;;;;;;-146.25;100.00;52702.75;2079965;28;37767;-77
2023/12/14 00:56:20;;;;;;;7.95;4.97;;;;;;;-146.25;100.00;52718.97;2080028;28;31957;-78
2023/12/14 00:57:22;;;;;;;6.15;4.57;;;;;;;-146.25;100.00;52700.72;2079568;28;36897;-77
2023/12/14 00:58:24;;;;;;;7.28;4.50;;;;;;;-146.25;100.00;52721.00;2079550;28;36927;-78
2023/12/14 00:59:29;;;;;;;7.55;4.55;;;;;;;-146.25;100.00;52694.66;2079648;28;35781;-78
2023/12/14 01:00:31;;;;;;;5.82;4.20;;;;;;;-146.25;100.00;52690.59;2080044;28;36660;-76
2023/12/14 01:01:34;;;;;;;6.13;4.57;;;;;;;-146.25;100.00;52672.34;2079748;28;33587;-77
2023/12/14 01:02:37;;;;;;;7.43;5.32;;;;;;;-146.25;100.00;52680.47;2079809;28;35976;-77
2023/12/14 01:03:39;;;;;;;5.55;4.57;;;;;;;-146.25;100.00;52704.78;2080090;28;35571;-77
2023/12/14 01:04:41;;;;;;;6.50;4.43;;;;;;;-146.25;100.00;52694.66;2079855;28;36661;-78
2023/12/14 01:05:43;;;;;;;7.10;4.50;;;;;;;-146.25;100.00;52729.13;2079094;28;38079;-77
2023/12/14 01:06:45;;;;;;;6.13;4.50;;;;;;;-146.25;100.00;52690.59;2079864;28;35678;-78
2023/12/14 01:07:47;;;;;;;5.88;4.20;;;;;;;-146.25;100.00;52700.72;2079118;28;33831;-77
2023/12/14 01:08:51;;;;;;;5.50;4.32;;;;;;;-146.25;100.00;52706.81;2079078;28;36616;-78
2023/12/14 01:09:53;;;;;;;6.93;4.47;;;;;;;-146.25;100.00;52678.44;2079322;28;34154;-77
2023/12/14 01:10:54;;;;;;;8.65;4.45;;;;;;;-146.25;100.00;52696.69;2079657;28;37417;-76
2023/12/14 01:11:57;;;;;;;7.32;4.40;;;;;;;-146.25;100.00;52727.09;2080388;28;20038;-76
2023/12/14 01:12:59;;;;;;;6.32;4.28;;;;;;;-146.25;100.00;52676.41;2079298;28;35871;-77
2023/12/14 01:14:00;;;;;;;8.20;4.40;;;;;;;-146.25;100.00;52672.34;2079644;28;34573;-77
2023/12/14 01:15:05;;;;;;;6.40;4.38;;;;;;;-146.25;100.00;52704.78;2080710;28;20041;-77
2023/12/14 01:16:07;;;;;;;6.80;4.65;;;;;;;-146.25;100.00;52692.63;2080203;28;21067;-77
2023/12/14 01:17:09;;;;;;;6.32;4.30;;;;;;;-146.25;100.00;52662.22;2079426;28;38930;-77
2023/12/14 01:18:14;;;;;;;7.15;4.55;;;;;;;-146.25;100.00;52696.69;2079216;28;38060;-78
2023/12/14 01:19:16;;;;;;;7.53;4.22;;;;;;;-146.25;100.00;52737.22;2079738;28;33470;-75
2023/12/14 01:20:17;;;;;;;5.65;3.88;;;;;;;-146.25;100.00;52688.56;2078840;28;35224;-75
2023/12/14 01:21:19;;;;;;;6.75;4.70;;;;;;;-146.25;100.00;52692.63;2078701;28;35861;-76
2023/12/14 01:22:23;;;;;;;10.50;5.07;;;;;;;-146.25;100.00;52684.50;2079508;28;35706;-76
2023/12/14 01:23:25;;;;;;;6.50;4.43;;;;;;;-146.25;100.00;52688.56;2079529;28;35738;-76
2023/12/14 01:24:27;;;;;;;7.65;4.93;;;;;;;-146.25;100.00;52680.47;2079388;28;34976;-76
2023/12/14 01:25:28;;;;;;;8.23;5.07;;;;;;;-146.25;100.00;52670.31;2079493;28;34787;-76
2023/12/14 01:26:30;;;;;;;9.00;5.70;;;;;;;-146.25;100.00;52712.91;2079569;28;34079;-75
2023/12/14 01:27:32;;;;;;;8.07;5.50;;;;;;;-146.25;100.00;52672.34;2079820;28;36281;-76
2023/12/14 01:28:35;;;;;;;8.02;5.20;;;;;;;-146.25;100.00;52694.66;2080132;28;20792;-76
2023/12/14 01:29:37;;;;;;;6.88;5.30;;;;;;;-146.25;100.00;52696.69;2079340;28;38271;-77
2023/12/14 01:30:38;;;;;;;8.30;5.18;;;;;;;-146.25;100.00;52686.53;2079418;28;35247;-75
2023/12/14 01:31:40;;;;;;;6.55;5.40;;;;;;;-146.25;100.00;52688.56;2079523;28;34646;-76
2023/12/14 01:32:42;;;;;;;7.72;5.10;;;;;;;-146.25;100.00;52696.69;2079574;28;30360;-76
2023/12/14 01:33:45;;;;;;;7.63;5.32;;;;;;;-146.25;100.00;52692.63;2079523;28;34776;-78
2023/12/14 01:34:47;;;;;;;8.15;5.22;;;;;;;-146.25;100.00;52688.56;2079146;28;39763;-76
2023/12/14 01:35:49;;;;;;;9.93;5.43;;;;;;;-146.25;100.00;52676.41;2079404;28;35916;-78
2023/12/14 01:36:51;;;;;;;7.68;4.95;;;;;;;-146.25;100.00;52696.69;2079883;28;34141;-78
2023/12/14 01:37:52;;;;;;;7.70;5.22;;;;;;;-146.25;100.00;52721.00;2079533;28;36347;-76
2023/12/14 01:38:54;;;;;;;8.95;5.20;;;;;;;-146.25;100.00;52731.16;2079064;28;35729;-77
2023/12/14 01:39:56;;;;;;;10.02;5.38;;;;;;;-146.25;100.00;52706.81;2079653;28;36456;-75
2023/12/14 01:40:59;;;;;;;10.55;5.55;;;;;;;-146.25;100.00;52686.53;2079012;28;38803;-76
2023/12/14 01:42:03;;;;;;;10.18;5.38;;;;;;;-146.25;100.00;52692.63;2079549;28;36115;-78
2023/12/14 01:43:10;;;;;;;10.60;4.82;;;;;;;-146.25;100.00;52670.31;2079183;28;34828;-77
2023/12/14 01:44:12;;;;;;;9.35;4.90;;;;;;;-146.25;100.00;52696.69;2079838;28;36726;-76
2023/12/14 01:45:16;;;;;;;8.52;5.25;;;;;;;-146.25;100.00;52739.25;2079391;28;32453;-76
2023/12/14 01:46:18;;;;;;;8.65;4.93;;;;;;;-146.25;100.00;52684.50;2079414;28;35884;-75
2023/12/14 01:47:19;;;;;;;11.88;5.53;;;;;;;-146.25;100.00;52680.47;2078926;28;38857;-75
2023/12/14 01:48:21;;;;;;;8.45;5.22;;;;;;;-146.25;100.00;52702.75;2080236;28;21012;-75
2023/12/14 01:49:23;;;;;;;9.63;5.63;;;;;;;-146.25;100.00;52698.72;2078727;28;37129;-75
2023/12/14 01:50:25;;;;;;;9.13;5.10;;;;;;;-146.25;100.00;52706.81;2079491;28;34357;-76
2023/12/14 01:51:28;;;;;;;9.07;4.88;;;;;;;-146.25;100.00;52716.97;2079788;28;20038;-76
2023/12/14 01:52:30;;;;;;;7.72;4.85;;;;;;;-146.25;100.00;52694.66;2079503;28;38230;-76
2023/12/14 01:53:32;;;;;;;9.45;5.05;;;;;;;-146.25;100.00;52690.59;2079129;28;34254;-76
2023/12/14 01:54:34;;;;;;;8.90;4.82;;;;;;;-146.25;100.00;52729.13;2079929;28;20042;-76
2023/12/14 01:55:36;;;;;;;10.07;5.00;;;;;;;-146.25;100.00;52700.72;2079262;28;37626;-76
2023/12/14 01:56:40;;;;;;;9.27;5.50;;;;;;;-146.25;100.00;52688.56;2079460;28;39636;-75
2023/12/14 01:57:42;;;;;;;8.45;4.53;;;;;;;-146.25;100.00;52672.34;2079807;28;20883;-76
2023/12/14 01:58:44;;;;;;;9.27;5.28;;;;;;;-146.25;100.00;52706.81;2079319;28;39020;-76
2023/12/14 01:59:46;;;;;;;9.40;5.07;;;;;;;-146.25;100.00;52694.66;2079687;28;35354;-76
2023/12/14 02:01:15;;;;;;;8.90;5.18;;;;;;;-146.25;100.00;52692.63;2080215;28;20102;-76
2023/12/14 02:02:16;;;;;;;10.20;5.32;;;;;;;-146.25;100.00;52668.28;2078982;28;33450;-75
2023/12/14 02:03:19;;;;;;;8.35;4.75;;;;;;;-146.25;100.00;52692.63;2079873;28;20747;-74
2023/12/14 02:04:21;;;;;;;9.18;5.13;;;;;;;-146.25;100.00;52688.56;2079303;28;38916;-77
2023/12/14 02:05:23;;;;;;;8.25;4.90;;;;;;;-146.25;100.00;52712.91;2078958;28;35085;-76
2023/12/14 02:06:25;;;;;;;8.35;5.20;;;;;;;-146.25;100.00;52712.91;2079022;28;31429;-74
2023/12/14 02:07:26;;;;;;;9.23;4.68;;;;;;;-146.25;100.00;52708.84;2079391;28;39065;-78
2023/12/14 02:08:31;;;;;;;8.73;4.90;;;;;;;-146.25;100.00;52733.19;2078903;28;32845;-78
2023/12/14 02:09:32;;;;;;;8.82;5.18;;;;;;;-146.25;100.00;52723.03;2079475;28;34507;-78
2023/12/14 02:10:35;;;;;;;9.32;5.07;;;;;;;-146.25;100.00;52637.88;2079136;28;34646;-78
2023/12/14 02:11:37;;;;;;;7.75;4.80;;;;;;;-146.25;100.00;52696.69;2079159;28;38816;-75
2023/12/14 02:12:39;;;;;;;8.65;5.15;;;;;;;-146.25;100.00;52710.88;2078789;28;34784;-77
2023/12/14 02:13:43;;;;;;;10.68;5.60;;;;;;;-146.25;100.00;52684.50;2079573;28;35556;-75
2023/12/14 02:14:45;;;;;;;7.93;4.60;;;;;;;-146.25;100.00;52678.44;2079586;28;20090;-74
2023/12/14 02:15:47;;;;;;;7.25;4.43;;;;;;;-146.25;100.00;52686.53;2079409;28;39212;-76
2023/12/14 02:16:51;;;;;;;9.15;5.25;;;;;;;-146.25;100.00;52684.50;2078972;28;33843;-75
2023/12/14 02:17:53;;;;;;;9.27;5.15;;;;;;;-146.25;100.00;52686.53;2079456;28;34458;-76
2023/12/14 02:18:55;;;;;;;9.77;4.93;;;;;;;-146.25;100.00;52688.56;2079117;28;38535;-73
2023/12/14 02:19:57;;;;;;;9.73;5.28;;;;;;;-146.25;100.00;52688.56;2079034;28;35714;-76
2023/12/14 02:20:58;;;;;;;10.30;5.90;;;;;;;-146.25;100.00;52668.28;2080284;28;35000;-78
2023/12/14 02:22:00;;;;;;;8.80;4.97;;;;;;;-146.25;100.00;52674.38;2081332;28;37012;-77
2023/12/14 02:23:04;;;;;;;9.38;5.40;;;;;;;-146.25;100.00;52662.22;2080136;28;35087;-77
2023/12/14 02:24:15;;;;;;;9.88;5.60;;;;;;;-146.25;100.00;52714.94;2080997;28;36367;-75
2023/12/14 02:25:20;;;;;;;12.25;5.25;;;;;;;-146.25;100.00;52688.56;2081154;28;20034;-77
2023/12/14 02:26:22;;;;;;;13.82;5.57;;;;;;;-146.25;100.00;52690.59;2080965;28;39540;-75
2023/12/14 02:27:24;;;;;;;11.13;5.55;;;;;;;-146.25;100.00;52682.47;2080419;28;32944;-76
2023/12/14 02:28:25;;;;;;;8.38;5.13;;;;;;;-146.25;100.00;52672.34;2081058;28;33966;-75
2023/12/14 02:29:29;;;;;;;9.85;5.45;;;;;;;-146.25;100.00;52688.56;2080501;28;37679;-75
2023/12/14 02:30:31;;;;;;;8.93;4.70;;;;;;;-146.25;100.00;52696.69;2081526;28;20184;-75
2023/12/14 02:31:33;;;;;;;9.10;5.50;;;;;;;-146.25;100.00;52745.34;2080116;28;37893;-75
2023/12/14 02:32:35;;;;;;;11.50;5.35;;;;;;;-146.25;100.00;52735.22;2080527;28;37149;-74
2023/12/14 02:33:37;;;;;;;12.30;5.05;;;;;;;-146.25;100.00;52716.97;2080355;28;34571;-75
2023/12/14 02:34:39;;;;;;;11.43;5.95;;;;;;;-146.25;100.00;52694.66;2080356;28;38555;-74
2023/12/14 02:35:43;;;;;;;12.02;5.22;;;;;;;-146.25;100.00;52682.47;2081297;28;20034;-78
2023/12/14 02:36:45;;;;;;;11.20;5.30;;;;;;;-146.25;100.00;52660.19;2080465;28;37381;-74
2023/12/14 02:37:46;;;;;;;11.35;5.38;;;;;;;-146.25;100.00;52674.38;2080138;28;36861;-75
2023/12/14 02:38:50;;;;;;;10.38;5.72;;;;;;;-146.25;100.00;52672.34;2080494;28;36413;-76
2023/12/14 02:39:52;;;;;;;12.27;5.68;;;;;;;-146.25;100.00;52684.50;2080444;28;38554;-76
2023/12/14 02:40:54;;;;;;;10.65;5.47;;;;;;;-146.25;100.00;52666.25;2081469;28;20169;-75
2023/12/14 02:41:56;;;;;;;10.80;5.35;;;;;;;-146.25;100.00;52674.38;2079872;28;39643;-77
2023/12/14 02:42:58;;;;;;;11.63;5.25;;;;;;;-146.25;100.00;52672.34;2080377;28;33549;-75
2023/12/14 02:43:59;;;;;;;10.75;6.03;;;;;;;-146.25;100.00;52680.47;2080932;28;35250;-77
2023/12/14 02:45:02;;;;;;;13.00;6.15;;;;;;;-146.25;100.00;52668.28;2080568;28;37543;-77
2023/12/14 02:46:04;;;;;;;10.77;5.53;;;;;;;-146.25;100.00;52731.16;2080233;28;34214;-77
2023/12/14 02:47:06;;;;;;;11.10;6.05;;;;;;;-146.25;100.00;52690.59;2080800;28;33826;-77
2023/12/14 02:48:08;;;;;;;9.75;5.95;;;;;;;-146.25;100.00;52700.72;2080039;28;39056;-77
2023/12/14 02:49:10;;;;;;;9.75;5.35;;;;;;;-146.25;100.00;52721.00;2080652;28;36599;-77
2023/12/14 02:50:15;;;;;;;12.10;5.93;;;;;;;-146.25;100.00;52668.28;2080899;28;20041;-78
2023/12/14 02:51:17;;;;;;;9.30;5.50;;;;;;;-146.25;100.00;52710.88;2080635;28;35431;-74
2023/12/14 02:52:19;;;;;;;11.73;5.65;;;;;;;-146.25;100.00;52714.94;2080195;28;32935;-77
2023/12/14 02:53:23;;;;;;;11.45;5.50;;;;;;;-146.25;100.00;52696.69;2080497;28;38962;-77
2023/12/14 02:54:24;;;;;;;10.93;5.63;;;;;;;-146.25;100.00;52694.66;2079906;28;35090;-78
2023/12/14 02:55:28;;;;;;;11.70;5.55;;;;;;;-146.25;100.00;52696.69;2080401;28;39268;-78
2023/12/14 02:56:30;;;;;;;9.73;6.00;;;;;;;-146.25;100.00;52704.78;2080101;28;34874;-77
2023/12/14 02:57:32;;;;;;;9.05;5.22;;;;;;;-146.25;100.00;52718.97;2080751;28;33230;-77
2023/12/14 02:58:33;;;;;;;13.55;5.70;;;;;;;-146.25;100.00;52631.78;2079721;28;38237;-77
2023/12/14 02:59:35;;;;;;;10.05;5.50;;;;;;;-146.25;100.00;52690.59;2080275;28;32905;-77
2023/12/14 03:00:37;;;;;;;9.98;5.90;;;;;;;-146.25;100.00;52672.34;2082906;28;20056;-76
2023/12/14 03:01:39;;;;;;;12.02;5.80;;;;;;;-146.25;100.00;52725.06;2088507;28;37568;-75
2023/12/14 03:02:40;;;;;;;12.63;6.32;;;;;;;-146.25;100.00;52662.22;2088724;28;35223;-77
2023/12/14 03:03:42;;;;;;;13.07;5.90;;;;;;;-146.25;100.00;52694.66;2088758;28;34424;-78
2023/12/14 03:04:44;;;;;;;10.23;5.70;;;;;;;-146.25;100.00;52686.53;2088520;28;36509;-77
2023/12/14 03:05:46;;;;;;;12.00;6.22;;;;;;;-146.25;100.00;52688.56;2088471;28;35927;-77
2023/12/14 03:06:48;;;;;;;11.65;6.20;;;;;;;-146.25;100.00;52702.75;2089025;28;30482;-75
2023/12/14 03:07:49;;;;;;;11.80;6.45;;;;;;;-146.25;100.00;52706.81;2088400;28;32870;-75
2023/12/14 03:08:53;;;;;;;10.18;6.03;;;;;;;-146.25;100.00;52678.44;2088592;28;32765;-75
2023/12/14 03:09:55;;;;;;;10.60;6.18;;;;;;;-146.25;100.00;52660.19;2087618;28;34671;-75
2023/12/14 03:10:57;;;;;;;9.88;5.88;;;;;;;-146.25;100.00;52708.84;2087690;28;31314;-75
2023/12/14 03:12:00;;;;;;;13.57;6.75;;;;;;;-146.25;100.00;52658.16;2088580;28;36817;-75
2023/12/14 03:13:02;;;;;;;13.05;6.22;;;;;;;-146.25;100.00;52690.59;2088453;28;31622;-76
2023/12/14 03:14:04;;;;;;;10.95;6.47;;;;;;;-146.25;100.00;52688.56;2088567;28;38935;-76
2023/12/14 03:15:06;;;;;;;10.07;5.97;;;;;;;-146.25;100.00;52712.91;2088378;28;37613;-75
2023/12/14 03:16:10;;;;;;;12.63;6.80;;;;;;;-146.25;100.00;52686.53;2088784;28;37487;-76
2023/12/14 03:17:12;;;;;;;10.82;6.07;;;;;;;-146.25;100.00;52672.34;2088442;28;37123;-75
2023/12/14 03:18:14;;;;;;;13.05;6.25;;;;;;;-146.25;100.00;52706.81;2088613;28;34594;-75
2023/12/14 03:19:16;;;;;;;11.95;6.07;;;;;;;-146.25;100.00;52696.69;2088328;28;39168;-75
2023/12/14 03:20:18;;;;;;;11.98;6.63;;;;;;;-146.25;100.00;52704.78;2088149;28;32420;-75
2023/12/14 03:21:20;;;;;;;14.40;6.28;;;;;;;-146.25;100.00;52670.31;2086772;28;34117;-74
2023/12/14 03:22:24;;;;;;;11.10;6.10;;;;;;;-146.25;100.00;52688.56;2080423;28;35792;-76
2023/12/14 03:23:26;;;;;;;11.27;5.78;;;;;;;-146.25;100.00;52721.00;2079851;28;34662;-75
2023/12/14 03:24:29;;;;;;;11.43;6.18;;;;;;;-146.25;100.00;52702.75;2080360;28;35652;-76
2023/12/14 03:25:31;;;;;;;10.02;6.38;;;;;;;-146.25;100.00;52684.50;2080174;28;37133;-75
2023/12/14 03:26:33;;;;;;;10.60;6.05;;;;;;;-146.25;100.00;52704.78;2081328;28;20030;-76
2023/12/14 03:27:34;;;;;;;11.32;6.60;;;;;;;-146.25;100.00;52737.22;2080200;28;35258;-78
2023/12/14 03:28:36;;;;;;;9.75;5.65;;;;;;;-146.25;100.00;52690.59;2080773;28;36611;-75
2023/12/14 03:29:38;;;;;;;13.93;6.75;;;;;;;-146.25;100.00;52686.53;2080343;28;35400;-75
2023/12/14 03:30:43;;;;;;;13.80;6.32;;;;;;;-146.25;100.00;52670.31;2080994;28;20042;-75
2023/12/14 03:31:44;;;;;;;10.48;6.05;;;;;;;-146.25;100.00;52670.31;2079454;28;34215;-77
2023/12/14 03:32:46;;;;;;;11.40;6.63;;;;;;;-146.25;100.00;52692.63;2080507;28;36109;-77
2023/12/14 03:33:48;;;;;;;12.15;6.30;;;;;;;-146.25;100.00;52729.13;2080354;28;33542;-77
2023/12/14 03:34:52;;;;;;;11.50;6.43;;;;;;;-146.25;100.00;52674.38;2080135;28;36129;-77
2023/12/14 03:35:54;;;;;;;13.75;6.25;;;;;;;-146.25;100.00;52684.50;2079929;28;38857;-77
2023/12/14 03:36:56;;;;;;;11.35;6.55;;;;;;;-146.25;100.00;52743.31;2080430;28;32245;-76
2023/12/14 03:37:58;;;;;;;10.52;6.78;;;;;;;-146.25;100.00;52639.91;2079656;28;36184;-77
2023/12/14 03:38:59;;;;;;;12.98;7.22;;;;;;;-146.25;100.00;52716.97;2080280;28;36936;-76
2023/12/14 03:40:01;;;;;;;11.85;7.35;;;;;;;-146.25;100.00;52678.44;2079825;28;34497;-77
2023/12/14 03:41:04;;;;;;;12.57;7.25;;;;;;;-146.25;100.00;52712.91;2079987;28;20042;-78
2023/12/14 03:42:06;;;;;;;16.45;7.72;;;;;;;-146.25;100.00;52692.63;2080234;28;36009;-77
2023/12/14 03:43:07;;;;;;;12.05;7.70;;;;;;;-146.25;100.00;52733.19;2080980;28;38368;-77
2023/12/14 03:44:09;;;;;;;12.95;7.75;;;;;;;-146.25;100.00;52668.28;2080105;28;37480;-75
2023/12/14 03:45:11;;;;;;;16.52;7.40;;;;;;;-146.25;100.00;52692.63;2080338;28;35030;-76
2023/12/14 03:46:13;;;;;;;12.32;7.60;;;;;;;-146.25;100.00;52737.22;2080067;28;36457;-76
2023/12/14 03:47:15;;;;;;;16.27;7.85;;;;;;;-146.25;100.00;52684.50;2080326;28;37412;-76
2023/12/14 03:48:17;;;;;;;13.75;8.50;;;;;;;-146.25;100.00;52710.88;2080132;28;38018;-76
2023/12/14 03:49:19;;;;;;;14.07;8.02;;;;;;;-146.25;100.00;52727.09;2080298;28;36545;-75
2023/12/14 03:50:23;;;;;;;19.23;8.30;;;;;;;-146.25;100.00;52678.44;2080361;28;37100;-74
2023/12/14 03:51:25;;;;;;;15.20;8.32;;;;;;;-146.25;100.00;52674.38;2077305;28;37048;-76
2023/12/14 03:52:31;;;;;;;13.82;8.65;;;;;;;-146.25;100.00;52704.78;2079672;28;30471;-76
2023/12/14 03:53:33;;;;;;;16.90;8.02;;;;;;;-146.25;100.00;52704.78;2080008;28;37069;-75
2023/12/14 03:54:35;;;;;;;16.05;8.23;;;;;;;-146.25;100.00;52694.66;2079605;28;35126;-76
2023/12/14 03:55:36;;;;;;;17.67;8.55;;;;;;;-146.25;100.00;52690.59;2080265;28;35077;-77
2023/12/14 03:56:38;;;;;;;13.45;8.30;;;;;;;-146.25;100.00;52696.69;2079749;28;36698;-77
2023/12/14 03:57:40;;;;;;;13.13;8.02;;;;;;;-146.25;100.00;52749.41;2079765;28;34132;-77
2023/12/14 03:58:41;;;;;;;16.42;8.05;;;;;;;-146.25;100.00;52668.28;2080022;28;35503;-78
2023/12/14 03:59:43;;;;;;;14.90;8.48;;;;;;;-146.25;100.00;52656.13;2080125;28;38653;-74
2023/12/14 04:00:45;;;;;;;13.68;8.20;;;;;;;-146.25;100.00;52694.66;2079973;28;33139;-76
2023/12/14 04:01:47;;;;;;;14.32;8.50;;;;;;;-146.25;100.00;52700.72;2080392;28;34824;-75
2023/12/14 04:02:49;;;;;;;13.70;8.60;;;;;;;-146.25;100.00;52716.97;2080179;28;35499;-76
2023/12/14 04:03:51;;;;;;;12.15;8.07;;;;;;;-146.25;100.00;52660.19;2079323;28;34778;-76
2023/12/14 04:04:55;;;;;;;16.00;7.85;;;;;;;-146.25;100.00;52670.31;2079495;28;31560;-76
2023/12/14 04:05:56;;;;;;;13.85;8.30;;;;;;;-146.25;100.00;52688.56;2080072;28;33651;-75
2023/12/14 04:07:00;;;;;;;14.38;8.27;;;;;;;-146.25;100.00;52680.47;2079217;28;36077;-75
2023/12/14 04:08:02;;;;;;;17.00;8.27;;;;;;;-146.25;100.00;52682.47;2080153;28;31513;-74
2023/12/14 04:09:04;;;;;;;17.30;8.63;;;;;;;-146.25;100.00;52666.25;2079851;28;37366;-76
2023/12/14 04:10:08;;;;;;;16.55;8.60;;;;;;;-146.25;100.00;52710.88;2079659;28;33812;-75
2023/12/14 04:11:10;;;;;;;14.55;8.50;;;;;;;-146.25;100.00;52692.63;2079264;28;33706;-76
2023/12/14 04:12:15;;;;;;;14.60;8.02;;;;;;;-146.25;100.00;52690.59;2080928;28;20034;-76
2023/12/14 04:13:17;;;;;;;14.25;8.98;;;;;;;-146.25;100.00;52729.13;2081080;28;20896;-74
2023/12/14 04:14:19;;;;;;;14.90;8.93;;;;;;;-146.25;100.00;52686.53;2080041;28;36732;-76
2023/12/14 04:15:21;;;;;;;16.00;9.23;;;;;;;-146.25;100.00;52688.56;2079773;28;34000;-76
2023/12/14 04:16:23;;;;;;;14.45;8.88;;;;;;;-146.25;100.00;52727.09;2080878;28;20077;-76
2023/12/14 04:17:26;;;;;;;15.25;7.85;;;;;;;-146.25;100.00;52696.69;2079773;28;37987;-78
2023/12/14 04:18:28;;;;;;;16.02;8.90;;;;;;;-146.25;100.00;52692.63;2079370;28;35671;-75
2023/12/14 04:19:30;;;;;;;15.23;8.35;;;;;;;-146.25;100.00;52682.47;2079704;28;20796;-76
2023/12/14 04:20:34;;;;;;;14.05;8.93;;;;;;;-146.25;100.00;52708.84;2079917;28;38719;-75
2023/12/14 04:21:36;;;;;;;14.65;8.55;;;;;;;-146.25;100.00;52708.84;2079921;28;31064;-75
2023/12/14 04:22:38;;;;;;;16.23;9.25;;;;;;;-146.25;100.00;52704.78;2080471;28;20042;-77
2023/12/14 04:23:41;;;;;;;13.75;8.77;;;;;;;-146.25;100.00;52692.63;2080741;28;20128;-77
2023/12/14 04:24:42;;;;;;;15.50;8.52;;;;;;;-146.25;100.00;52668.28;2080249;28;34760;-76
2023/12/14 04:25:44;;;;;;;15.15;8.15;;;;;;;-146.25;100.00;52723.03;2080392;28;20746;-77
2023/12/14 04:26:46;;;;;;;14.77;8.38;;;;;;;-146.25;100.00;52684.50;2079505;28;35397;-76
2023/12/14 04:27:48;;;;;;;15.55;8.65;;;;;;;-146.25;100.00;52692.63;2078991;28;36430;-76
2023/12/14 04:28:50;;;;;;;14.20;8.60;;;;;;;-146.25;100.00;52718.97;2080658;28;21090;-76
2023/12/14 04:29:52;;;;;;;14.85;8.57;;;;;;;-146.25;100.00;52682.47;2079780;28;39204;-76
2023/12/14 04:30:54;;;;;;;15.95;8.90;;;;;;;-146.25;100.00;52668.28;2080088;28;31171;-75
2023/12/14 04:31:58;;;;;;;14.60;8.80;;;;;;;-146.25;100.00;52670.31;2079804;28;20038;-74
2023/12/14 04:33:00;;;;;;;18.08;9.18;;;;;;;-146.25;100.00;52708.84;2079498;28;37139;-76
2023/12/14 04:34:02;;;;;;;15.95;8.60;;;;;;;-146.25;100.00;52712.91;2079944;28;34180;-76
2023/12/14 04:35:05;;;;;;;14.15;8.98;;;;;;;-146.25;100.00;52668.28;2080329;28;34319;-75
2023/12/14 04:36:07;;;;;;;14.32;8.88;;;;;;;-146.25;100.00;52696.69;2079012;28;37425;-76
2023/12/14 04:37:11;;;;;;;14.38;8.52;;;;;;;-146.25;100.00;52672.34;2079820;28;20042;-76
2023/12/14 04:38:13;;;;;;;14.35;8.27;;;;;;;-146.25;100.00;52716.97;2080029;28;20132;-76
2023/12/14 04:39:16;;;;;;;14.38;9.05;;;;;;;-146.25;100.00;52698.72;2080009;28;35786;-76
2023/12/14 04:40:18;;;;;;;17.42;8.57;;;;;;;-146.25;100.00;52676.41;2079684;28;31570;-77
2023/12/14 04:41:20;;;;;;;16.88;8.85;;;;;;;-146.25;100.00;52676.41;2079491;28;35205;-76
2023/12/14 04:42:22;;;;;;;15.27;9.20;;;;;;;-146.25;100.00;52706.81;2079732;28;37774;-77